Time;durP1;ratioP1;P1;durP2;ratioP2;P2;SDS_P1;SDS_P2;PMS_P1;PMS_P2;Temp;Humidity;BMP_temperature;BMP_pressure;BME280_temperature;BME280_humidity;BME280_pressure;Samples;Min_cycle;Max_cycle;Signal;HPM_P1;HPM_P2
2022/01/01 00:02:19;;;;;;;15.98;7.50;;;;;;;9.11;100.00;101193.53;4989194;28;20080;-65
2022/01/01 00:04:44;;;;;;;26.80;18.88;;;;;;;9.21;100.00;101189.94;4989025;28;20026;-65
2022/01/01 00:07:10;;;;;;;96.88;65.65;;;;;;;9.27;100.00;101195.22;4989276;28;20030;-65
2022/01/01 00:09:36;;;;;;;67.45;47.60;;;;;;;9.27;100.00;101185.44;4989324;28;20026;-65
2022/01/01 00:12:01;;;;;;;26.48;18.63;;;;;;;9.35;100.00;101203.97;4989202;28;20027;-65
2022/01/01 00:14:28;;;;;;;16.17;10.32;;;;;;;9.46;100.00;101202.09;4989487;28;20038;-65
2022/01/01 00:16:54;;;;;;;11.00;7.32;;;;;;;9.44;100.00;101198.56;4988726;28;20031;-65
2022/01/01 00:19:19;;;;;;;13.43;7.70;;;;;;;9.43;100.00;101210.09;5007953;28;20084;-65
2022/01/01 00:21:44;;;;;;;15.50;9.52;;;;;;;9.46;100.00;101217.16;5012296;28;20030;-66
2022/01/01 00:24:10;;;;;;;17.48;9.98;;;;;;;9.45;100.00;101216.28;5011409;28;20400;-66
2022/01/01 00:26:36;;;;;;;18.70;10.40;;;;;;;9.40;100.00;101207.47;5012306;28;20113;-66
2022/01/01 00:29:01;;;;;;;17.60;10.30;;;;;;;9.48;100.00;101216.25;5012109;28;20108;-66
2022/01/01 00:31:28;;;;;;;18.95;10.65;;;;;;;9.56;100.00;101221.47;5010844;28;20037;-66
2022/01/01 00:33:53;;;;;;;16.13;9.85;;;;;;;9.62;100.00;101222.31;4996336;28;20034;-66
2022/01/01 00:36:19;;;;;;;16.85;9.32;;;;;;;9.79;100.00;101222.13;4992532;28;20073;-66
2022/01/01 00:38:44;;;;;;;15.43;9.23;;;;;;;9.94;100.00;101221.97;4991806;28;20034;-66
2022/01/01 00:41:09;;;;;;;14.80;9.25;;;;;;;9.96;100.00;101221.09;4992552;28;20109;-66
2022/01/01 00:43:35;;;;;;;14.32;8.88;;;;;;;9.98;100.00;101224.56;5006175;28;20105;-66
2022/01/01 00:46:00;;;;;;;14.07;8.38;;;;;;;10.01;100.00;101213.94;5011920;28;20485;-66
2022/01/01 00:48:26;;;;;;;16.50;10.10;;;;;;;10.03;100.00;101201.50;4994236;28;20787;-66
2022/01/01 00:50:51;;;;;;;19.25;8.82;;;;;;;10.18;100.00;101216.44;5011340;28;20390;-66
2022/01/01 00:53:17;;;;;;;18.48;10.35;;;;;;;10.22;100.00;101229.66;5012301;28;20029;-66
2022/01/01 00:55:42;;;;;;;16.50;8.60;;;;;;;10.26;100.00;101220.75;5011490;28;20034;-66
2022/01/01 00:58:08;;;;;;;13.60;8.60;;;;;;;10.21;100.00;101219.06;5011569;28;20034;-66
2022/01/01 01:00:33;;;;;;;13.07;7.47;;;;;;;10.14;100.00;101236.88;5011354;28;20022;-66
2022/01/01 01:02:59;;;;;;;12.55;7.65;;;;;;;10.12;100.00;101236.00;5011753;28;20029;-66
2022/01/01 01:05:25;;;;;;;15.32;8.02;;;;;;;10.10;100.00;101235.13;5011525;28;20049;-64
2022/01/01 01:07:50;;;;;;;13.10;7.50;;;;;;;10.15;100.00;101238.59;5010440;28;20026;-63
2022/01/01 01:10:16;;;;;;;14.85;8.13;;;;;;;10.20;100.00;101236.78;5008409;28;20493;-63
2022/01/01 01:12:45;;;;;;;12.13;8.13;;;;;;;10.23;100.00;101235.88;5011215;28;20026;-63
2022/01/01 01:15:17;;;;;;;18.35;11.20;;;;;;;10.29;100.00;101239.34;5011066;28;20025;-63
2022/01/01 01:17:47;;;;;;;19.27;12.57;;;;;;;10.33;100.00;101246.38;5004836;28;20034;-65
2022/01/01 01:20:13;;;;;;;23.83;14.15;;;;;;;10.36;100.00;101241.00;4991063;28;20041;-65
2022/01/01 01:22:38;;;;;;;17.63;11.13;;;;;;;10.39;100.00;101237.44;4992012;28;20038;-65
2022/01/01 01:25:04;;;;;;;19.77;11.65;;;;;;;10.37;100.00;101240.13;4991592;28;20390;-65
2022/01/01 01:27:30;;;;;;;15.48;10.43;;;;;;;10.42;100.00;101248.94;4991582;28;20026;-65
2022/01/01 01:29:58;;;;;;;21.20;12.02;;;;;;;10.46;100.00;101253.28;4991263;28;20037;-65
2022/01/01 01:32:24;;;;;;;19.35;11.27;;;;;;;10.48;100.00;101248.84;4997146;28;20025;-65
2022/01/01 01:34:49;;;;;;;21.30;12.00;;;;;;;10.48;100.00;101264.81;5011198;28;20025;-65
2022/01/01 01:37:15;;;;;;;21.00;12.43;;;;;;;10.45;100.00;101251.53;5009679;28;20040;-65
2022/01/01 01:39:40;;;;;;;20.80;12.07;;;;;;;10.42;100.00;101258.69;5010958;28;20033;-65
2022/01/01 01:42:06;;;;;;;21.92;12.75;;;;;;;10.40;100.00;101271.09;5011616;28;20083;-65
2022/01/01 01:44:35;;;;;;;18.52;10.52;;;;;;;10.30;100.00;101265.03;5007260;28;20018;-65
2022/01/01 01:47:02;;;;;;;22.42;11.80;;;;;;;10.29;100.00;101262.38;5010151;28;20044;-65
2022/01/01 01:49:29;;;;;;;22.40;12.65;;;;;;;10.38;100.00;101263.16;5010211;28;20033;-66
2022/01/01 01:51:55;;;;;;;21.98;11.65;;;;;;;10.41;100.00;101252.47;5011018;28;20389;-65
2022/01/01 01:54:21;;;;;;;22.17;12.63;;;;;;;10.42;100.00;101254.25;5010316;28;20069;-65
2022/01/01 01:56:47;;;;;;;22.48;12.13;;;;;;;10.46;100.00;101250.63;5010122;28;20033;-65
2022/01/01 01:59:14;;;;;;;19.98;12.10;;;;;;;10.47;100.00;101246.22;5010639;28;20393;-65
2022/01/01 02:01:40;;;;;;;24.80;13.50;;;;;;;10.63;100.00;101238.00;5011066;28;20026;-65
2022/01/01 02:04:06;;;;;;;27.35;14.52;;;;;;;10.60;100.00;101237.16;5010404;28;20026;-65
2022/01/01 02:06:32;;;;;;;26.27;13.73;;;;;;;10.58;100.00;101229.22;5009905;28;20064;-65
2022/01/01 02:08:58;;;;;;;27.95;13.82;;;;;;;10.63;100.00;101222.03;5009909;28;20029;-65
2022/01/01 02:11:24;;;;;;;25.38;12.20;;;;;;;10.58;100.00;101215.00;5009936;28;20377;-65
2022/01/01 02:18:46;;;;;;;19.20;11.57;;;;;;;10.61;100.00;101210.53;4995847;28;20034;-65
2022/01/01 02:21:13;;;;;;;19.52;10.82;;;;;;;10.50;100.00;101209.81;4990355;28;20108;-65
2022/01/01 02:23:43;;;;;;;17.58;9.07;;;;;;;10.47;100.00;101203.66;4992300;28;20548;-65
2022/01/01 02:26:13;;;;;;;21.73;9.80;;;;;;;10.54;100.00;101206.19;5007817;28;20026;-65
2022/01/01 02:28:48;;;;;;;17.77;10.38;;;;;;;10.60;100.00;101199.91;5009038;28;20037;-65
2022/01/01 02:31:15;;;;;;;14.82;8.07;;;;;;;10.56;100.00;101193.75;5004474;28;20022;-65
2022/01/01 02:33:42;;;;;;;20.73;8.82;;;;;;;10.52;100.00;101192.06;4989751;28;20383;-65
2022/01/01 02:36:07;;;;;;;28.60;10.13;;;;;;;10.45;100.00;101201.00;4990369;28;20026;-65
2022/01/01 02:38:34;;;;;;;21.15;11.45;;;;;;;10.43;100.00;101192.16;4999723;28;20083;-65
2022/01/01 02:40:59;;;;;;;17.88;10.65;;;;;;;10.54;100.00;101194.69;4991729;28;20018;-65
2022/01/01 02:43:25;;;;;;;22.20;10.57;;;;;;;10.47;100.00;101193.91;5008528;28;20041;-65
2022/01/01 02:45:51;;;;;;;20.73;10.38;;;;;;;10.47;100.00;101196.56;5008971;28;20080;-65
2022/01/01 02:48:17;;;;;;;17.13;10.40;;;;;;;10.42;100.00;101189.53;5009397;28;20041;-65
2022/01/01 02:50:42;;;;;;;19.95;10.57;;;;;;;10.34;100.00;101192.31;5009575;28;20030;-65
2022/01/01 02:53:14;;;;;;;19.33;10.43;;;;;;;10.34;100.00;101192.31;5010036;28;20080;-65
2022/01/01 02:55:41;;;;;;;19.88;11.07;;;;;;;10.31;100.00;101191.47;5009876;28;20032;-65
2022/01/01 02:58:08;;;;;;;20.27;11.52;;;;;;;10.26;100.00;101183.50;5009483;28;20371;-65
2022/01/01 03:00:33;;;;;;;24.50;11.38;;;;;;;10.30;100.00;101190.56;5009786;28;20227;-65
2022/01/01 03:02:59;;;;;;;17.63;10.35;;;;;;;10.25;100.00;101192.41;5008744;28;20117;-65
2022/01/01 03:05:25;;;;;;;20.92;10.23;;;;;;;10.24;100.00;101190.66;5009449;28;20535;-65
2022/01/01 03:07:50;;;;;;;18.70;10.20;;;;;;;10.24;100.00;101190.66;5009092;28;20029;-65
2022/01/01 03:10:15;;;;;;;20.08;9.88;;;;;;;10.20;100.00;101188.91;5009380;28;20438;-65
2022/01/01 03:12:41;;;;;;;20.88;10.77;;;;;;;10.20;100.00;101190.69;5009449;28;20120;-65
2022/01/01 03:15:06;;;;;;;19.95;10.13;;;;;;;10.12;100.00;101184.59;5006855;28;20392;-65
2022/01/01 03:17:32;;;;;;;22.58;10.73;;;;;;;10.10;100.00;101181.06;5005043;28;20045;-65
2022/01/01 03:19:57;;;;;;;18.40;9.88;;;;;;;10.05;100.00;101183.75;4988938;28;20033;-65
2022/01/01 03:22:23;;;;;;;17.55;8.77;;;;;;;9.98;100.00;101182.06;4989783;28;20108;-66
2022/01/01 03:24:48;;;;;;;16.42;9.45;;;;;;;9.91;100.00;101185.69;4990068;28;20058;-65
2022/01/01 03:27:14;;;;;;;14.20;7.85;;;;;;;9.85;100.00;101185.75;4988905;28;20026;-65
2022/01/01 03:29:39;;;;;;;18.02;10.05;;;;;;;9.79;100.00;101183.16;4990100;28;20026;-65
2022/01/01 03:32:05;;;;;;;18.92;9.68;;;;;;;9.71;100.00;101181.50;4992952;28;20021;-65
2022/01/01 03:34:31;;;;;;;16.45;9.40;;;;;;;9.46;100.00;101145.44;5009638;28;20068;-65
2022/01/01 03:36:57;;;;;;;18.38;9.75;;;;;;;9.50;100.00;101160.47;5006030;28;20709;-65
2022/01/01 03:39:22;;;;;;;16.95;10.00;;;;;;;9.45;100.00;101168.50;5008750;28;20037;-65
2022/01/01 03:41:49;;;;;;;19.67;9.95;;;;;;;9.40;100.00;101170.31;5009423;28;20032;-65
2022/01/01 03:44:14;;;;;;;19.13;9.95;;;;;;;9.37;100.00;101165.03;5009211;28;20026;-65
2022/01/01 03:46:40;;;;;;;17.88;9.05;;;;;;;9.25;100.00;101154.50;5008975;28;20037;-65
2022/01/01 03:49:05;;;;;;;16.88;9.43;;;;;;;9.16;100.00;101160.78;5009466;28;20539;-65
2022/01/01 03:51:31;;;;;;;15.45;8.68;;;;;;;9.04;100.00;101163.53;5009496;28;20026;-65
2022/01/01 03:53:56;;;;;;;17.42;9.98;;;;;;;8.89;100.00;101150.41;5009249;28;20065;-65
2022/01/01 03:56:21;;;;;;;18.02;9.73;;;;;;;8.88;100.00;101161.03;5012309;28;20034;-65
2022/01/01 03:58:47;;;;;;;16.25;9.43;;;;;;;8.77;100.00;101157.56;5011817;28;20413;-65
2022/01/01 04:01:12;;;;;;;18.92;8.48;;;;;;;8.70;100.00;101153.19;5011899;28;20703;-65
2022/01/01 04:03:38;;;;;;;17.65;9.60;;;;;;;8.70;100.00;101158.47;5013315;28;20060;-65
2022/01/01 04:06:04;;;;;;;13.93;8.52;;;;;;;8.67;100.00;101158.50;5012686;28;20058;-65
2022/01/01 04:08:31;;;;;;;17.50;8.63;;;;;;;8.61;100.00;101163.88;5012628;28;20058;-65
2022/01/01 04:10:56;;;;;;;17.13;7.82;;;;;;;8.56;100.00;101165.66;5013524;28;20125;-65
2022/01/01 04:13:23;;;;;;;15.35;8.20;;;;;;;8.54;100.00;101162.13;5011740;28;20305;-65
2022/01/01 04:15:49;;;;;;;15.20;8.32;;;;;;;8.51;100.00;101157.75;5012579;28;20037;-65
2022/01/01 04:18:25;;;;;;;15.02;9.38;;;;;;;8.46;100.00;101148.03;5000306;28;20027;-65
2022/01/01 04:20:50;;;;;;;24.08;8.45;;;;;;;8.41;100.00;101156.03;4993630;28;20026;-65
2022/01/01 04:23:16;;;;;;;15.00;7.95;;;;;;;8.36;100.00;101156.94;5010114;28;20034;-65
2022/01/01 04:25:43;;;;;;;15.18;7.72;;;;;;;8.25;100.00;101158.78;5012989;28;20461;-65
2022/01/01 04:28:09;;;;;;;17.02;7.10;;;;;;;8.18;100.00;101163.19;5012054;28;20034;-65
2022/01/01 04:30:34;;;;;;;16.67;8.45;;;;;;;8.10;100.00;101159.69;5012402;28;20038;-65
2022/01/01 04:33:00;;;;;;;13.77;7.18;;;;;;;8.07;100.00;101163.22;4999963;28;20038;-65
2022/01/01 04:35:25;;;;;;;11.15;6.55;;;;;;;7.98;100.00;101157.09;4992686;28;20037;-65
2022/01/01 04:37:51;;;;;;;10.90;6.78;;;;;;;7.97;100.00;101171.22;4991798;28;20030;-65
2022/01/01 04:40:16;;;;;;;13.98;7.05;;;;;;;7.93;100.00;101161.53;5011499;28;20559;-65
2022/01/01 04:42:42;;;;;;;15.57;6.65;;;;;;;7.96;100.00;101162.41;5011306;28;20061;-65
2022/01/01 04:45:08;;;;;;;13.70;8.20;;;;;;;7.91;100.00;101172.13;5012033;28;20026;-65
2022/01/01 04:47:34;;;;;;;17.55;7.43;;;;;;;7.98;100.00;101165.94;5012331;28;20041;-65
2022/01/01 04:50:02;;;;;;;13.80;7.65;;;;;;;7.99;100.00;101178.28;5011126;28;20437;-65
2022/01/01 04:52:28;;;;;;;13.02;7.63;;;;;;;7.94;100.00;101179.16;5012054;28;20026;-65
2022/01/01 04:54:53;;;;;;;15.20;6.28;;;;;;;7.89;100.00;101176.53;5011104;28;20022;-65
2022/01/01 04:57:18;;;;;;;10.65;6.53;;;;;;;7.85;100.00;101174.81;5011353;28;20537;-65
2022/01/01 04:59:44;;;;;;;12.35;6.93;;;;;;;7.76;100.00;101180.13;5011565;28;20026;-65
2022/01/01 05:02:09;;;;;;;9.25;5.57;;;;;;;7.69;100.00;101177.50;5011787;28;20026;-65
2022/01/01 05:04:37;;;;;;;12.32;5.65;;;;;;;7.59;100.00;101166.06;4993473;28;20548;-65
2022/01/01 05:07:05;;;;;;;11.80;6.50;;;;;;;7.52;100.00;101169.59;5010809;28;20430;-65
2022/01/01 05:09:30;;;;;;;16.10;7.00;;;;;;;7.49;100.00;101185.50;5011079;28;20546;-65
2022/01/01 05:11:56;;;;;;;13.60;6.10;;;;;;;7.45;100.00;101183.72;5010745;28;20117;-65
2022/01/01 05:14:21;;;;;;;26.23;9.52;;;;;;;7.47;100.00;101199.59;5011640;28;20030;-65
2022/01/01 05:16:47;;;;;;;14.05;8.60;;;;;;;7.48;100.00;101196.94;5011409;28;20080;-65
2022/01/01 05:19:13;;;;;;;28.80;9.57;;;;;;;7.62;100.00;101191.63;4993522;28;20034;-65
2022/01/01 05:21:38;;;;;;;29.52;10.93;;;;;;;7.76;100.00;101187.16;4991644;28;20433;-65
2022/01/01 05:24:06;;;;;;;22.90;9.18;;;;;;;7.89;100.00;101192.44;5004837;28;20018;-65
2022/01/01 05:26:32;;;;;;;22.02;8.93;;;;;;;7.98;100.00;101195.06;5011053;28;20026;-65
2022/01/01 05:28:58;;;;;;;17.30;8.98;;;;;;;8.07;100.00;101197.66;5010714;28;20037;-65
2022/01/01 05:31:23;;;;;;;15.40;7.88;;;;;;;8.15;100.00;101204.72;5010738;28;20469;-65
2022/01/01 05:33:49;;;;;;;25.30;10.18;;;;;;;8.21;100.00;101199.38;4995557;28;20064;-65
2022/01/01 05:36:15;;;;;;;20.73;8.05;;;;;;;8.26;100.00;101202.94;4991970;28;20030;-65
2022/01/01 05:38:42;;;;;;;16.63;7.90;;;;;;;8.21;100.00;101200.28;4991013;28;20034;-65
2022/01/01 05:41:08;;;;;;;17.70;8.02;;;;;;;8.31;100.00;101190.53;4991317;28;20018;-65
2022/01/01 05:43:33;;;;;;;13.80;8.10;;;;;;;8.40;100.00;101190.50;4991545;28;20030;-65
2022/01/01 05:45:59;;;;;;;15.57;7.82;;;;;;;8.46;100.00;101196.66;4990976;28;20057;-65
2022/01/01 05:48:24;;;;;;;17.05;8.98;;;;;;;8.43;100.00;101201.09;4989896;28;20058;-65
2022/01/01 05:50:50;;;;;;;16.27;7.97;;;;;;;8.42;100.00;101204.63;4991239;28;20030;-65
2022/01/01 05:53:19;;;;;;;22.73;8.52;;;;;;;8.39;100.00;101194.91;4990361;28;20027;-65
2022/01/01 05:55:45;;;;;;;22.05;9.52;;;;;;;8.39;100.00;101194.03;4990641;28;20029;-65
2022/01/01 05:58:10;;;;;;;15.13;8.20;;;;;;;8.41;100.00;101195.78;4990472;28;20030;-65
2022/01/01 06:00:36;;;;;;;15.93;6.65;;;;;;;8.47;100.00;101206.34;4991494;28;20022;-65
2022/01/01 06:03:01;;;;;;;24.38;7.53;;;;;;;8.47;100.00;101194.88;4989689;28;20120;-65
2022/01/01 06:05:28;;;;;;;14.15;7.65;;;;;;;8.49;100.00;101201.94;4990838;28;20418;-65
2022/01/01 06:07:55;;;;;;;16.13;7.63;;;;;;;8.52;100.00;101208.97;4990827;28;20034;-65
2022/01/01 06:10:21;;;;;;;15.60;5.93;;;;;;;8.56;100.00;101213.38;4990877;28;20030;-65
2022/01/01 06:12:46;;;;;;;14.13;6.70;;;;;;;8.54;100.00;101216.06;4990787;28;20517;-65
2022/01/01 06:15:12;;;;;;;12.60;6.72;;;;;;;8.62;100.00;101214.25;4990786;28;20030;-65
2022/01/01 06:17:37;;;;;;;19.90;8.20;;;;;;;8.68;100.00;101219.50;4995030;28;20021;-65
2022/01/01 06:20:04;;;;;;;14.45;7.18;;;;;;;8.67;100.00;101217.75;5010147;28;20026;-65
2022/01/01 06:22:29;;;;;;;17.17;7.38;;;;;;;8.79;100.00;101224.75;5008967;28;20032;-65
2022/01/01 06:24:55;;;;;;;13.00;7.00;;;;;;;8.75;100.00;101215.03;5010524;28;20436;-65
2022/01/01 06:27:20;;;;;;;46.05;11.75;;;;;;;8.83;100.00;101213.25;5003984;28;20022;-65
2022/01/01 06:29:46;;;;;;;26.38;8.63;;;;;;;8.84;100.00;101209.69;4990803;28;20141;-65
2022/01/01 06:32:12;;;;;;;15.68;6.97;;;;;;;8.89;100.00;101214.09;4994466;28;20398;-65
2022/01/01 06:34:38;;;;;;;28.30;8.35;;;;;;;8.89;100.00;101221.16;5008679;28;20041;-65
2022/01/01 06:37:03;;;;;;;18.95;8.30;;;;;;;8.85;100.00;101214.97;5009071;28;20034;-65
2022/01/01 06:39:28;;;;;;;12.73;6.60;;;;;;;8.83;100.00;101215.91;5008475;28;20133;-65
2022/01/01 06:41:54;;;;;;;19.70;7.63;;;;;;;8.91;100.00;101216.72;5009439;28;20084;-65
2022/01/01 06:44:19;;;;;;;15.38;7.70;;;;;;;8.90;100.00;101215.81;5009212;28;20014;-65
2022/01/01 06:46:45;;;;;;;19.25;9.00;;;;;;;8.98;100.00;101221.97;5009676;28;20026;-65
2022/01/01 06:49:10;;;;;;;17.50;8.15;;;;;;;9.02;100.00;101220.16;5009575;28;20028;-65
2022/01/01 06:51:36;;;;;;;18.17;6.70;;;;;;;9.02;100.00;101229.03;5010264;28;20022;-65
2022/01/01 06:54:05;;;;;;;14.48;6.40;;;;;;;9.04;100.00;101223.69;5009940;28;20366;-65
2022/01/01 06:56:30;;;;;;;24.05;8.27;;;;;;;9.05;100.00;101226.34;5008094;28;20029;-65
2022/01/01 06:58:56;;;;;;;10.43;6.03;;;;;;;9.12;100.00;101221.88;5008291;28;20369;-65
2022/01/01 07:01:21;;;;;;;20.60;6.70;;;;;;;9.20;100.00;101214.72;5009665;28;20033;-65
2022/01/01 07:03:47;;;;;;;15.02;7.07;;;;;;;9.03;100.00;101188.31;5009988;28;20097;-65
2022/01/01 07:06:12;;;;;;;10.70;6.20;;;;;;;9.11;100.00;101204.16;5009433;28;20069;-65
2022/01/01 07:08:38;;;;;;;37.20;9.13;;;;;;;9.10;100.00;101205.06;5008909;28;20030;-65
2022/01/01 07:11:03;;;;;;;15.90;7.43;;;;;;;9.06;100.00;101200.69;5009939;28;20034;-65
2022/01/01 07:13:28;;;;;;;13.40;7.03;;;;;;;9.15;100.00;101211.22;5009836;28;20385;-65
2022/01/01 07:15:54;;;;;;;11.82;7.00;;;;;;;9.16;100.00;101218.28;5008846;28;20493;-65
2022/01/01 07:18:20;;;;;;;14.75;8.02;;;;;;;9.11;100.00;101206.81;5008699;28;20030;-65
2022/01/01 07:20:45;;;;;;;10.57;6.35;;;;;;;9.13;100.00;101207.69;5009224;28;20018;-65
2022/01/01 07:23:11;;;;;;;12.27;6.53;;;;;;;9.22;100.00;101202.31;5005587;28;20402;-65
2022/01/01 07:25:36;;;;;;;12.98;6.68;;;;;;;9.24;100.00;101208.50;4991537;28;20026;-65
2022/01/01 07:28:03;;;;;;;10.43;6.30;;;;;;;9.26;100.00;101209.34;4990182;28;20530;-65
2022/01/01 07:30:28;;;;;;;12.25;6.63;;;;;;;9.34;100.00;101208.41;4993165;28;20030;-65
2022/01/01 07:32:54;;;;;;;14.55;6.28;;;;;;;9.38;100.00;101195.97;4992876;28;20022;-65
2022/01/01 07:35:20;;;;;;;10.75;6.55;;;;;;;9.38;100.00;101198.63;4993733;28;20026;-65
2022/01/01 07:37:46;;;;;;;11.70;6.10;;;;;;;9.42;100.00;101195.06;4993389;28;20368;-65
2022/01/01 07:40:14;;;;;;;10.23;5.93;;;;;;;9.47;100.00;101187.94;4993865;28;20026;-65
2022/01/01 07:42:41;;;;;;;9.90;5.97;;;;;;;9.48;100.00;101187.03;4993851;28;20065;-65
2022/01/01 07:45:07;;;;;;;12.07;5.88;;;;;;;9.51;100.00;101197.63;4976689;28;20038;-65
2022/01/01 07:47:32;;;;;;;13.27;6.53;;;;;;;9.50;100.00;101209.16;4993181;28;20446;-65
2022/01/01 07:49:58;;;;;;;12.93;6.43;;;;;;;9.54;100.00;101210.00;4993491;28;20026;-65
2022/01/01 07:52:23;;;;;;;13.30;6.50;;;;;;;9.63;100.00;101199.28;4992136;28;20031;-65
2022/01/01 07:54:49;;;;;;;10.80;5.95;;;;;;;9.64;100.00;101199.28;4993324;28;20653;-65
2022/01/01 07:57:14;;;;;;;10.10;5.53;;;;;;;9.65;100.00;101206.34;4992996;28;20037;-65
2022/01/01 07:59:39;;;;;;;10.65;6.03;;;;;;;9.66;100.00;101205.44;4993471;28;20073;-65
2022/01/01 08:02:05;;;;;;;8.40;5.25;;;;;;;9.60;100.00;101201.97;4993812;28;20054;-65
2022/01/01 08:04:30;;;;;;;9.05;5.13;;;;;;;9.58;100.00;101209.97;4993273;28;20034;-65
2022/01/01 08:06:56;;;;;;;9.60;5.10;;;;;;;9.47;100.00;101203.88;4992319;28;20058;-65
2022/01/01 08:09:21;;;;;;;9.50;5.45;;;;;;;9.49;100.00;101215.34;4992944;28;20049;-65
2022/01/01 08:11:47;;;;;;;11.23;5.30;;;;;;;9.39;100.00;101211.00;4991927;28;20035;-65
2022/01/01 08:14:12;;;;;;;7.88;4.80;;;;;;;9.31;100.00;101210.19;4993179;28;20030;-65
2022/01/01 08:16:57;;;;;;;8.63;5.13;;;;;;;9.22;100.00;101215.59;4993632;28;20113;-65
2022/01/01 08:19:23;;;;;;;7.57;4.53;;;;;;;9.17;100.00;101205.03;5012598;28;20022;-65
2022/01/01 08:21:48;;;;;;;9.43;4.82;;;;;;;9.17;100.00;101226.25;5012708;28;20014;-65
2022/01/01 08:24:14;;;;;;;11.25;5.68;;;;;;;9.15;100.00;101221.84;5012211;28;20025;-65
2022/01/01 08:26:39;;;;;;;8.68;4.90;;;;;;;9.15;100.00;101222.72;5012455;28;20113;-65
2022/01/01 08:29:05;;;;;;;8.88;5.07;;;;;;;9.17;100.00;101222.72;5012169;28;20359;-65
2022/01/01 08:31:30;;;;;;;11.20;5.32;;;;;;;9.18;100.00;101229.78;5011781;28;20026;-65
2022/01/01 08:33:55;;;;;;;7.85;5.05;;;;;;;9.22;100.00;101223.56;4995410;28;20117;-65
2022/01/01 08:36:21;;;;;;;9.77;4.97;;;;;;;9.24;100.00;101222.66;4992796;28;20037;-65
2022/01/01 08:38:46;;;;;;;9.82;5.32;;;;;;;9.32;100.00;101220.81;4995311;28;20026;-65
2022/01/01 08:41:12;;;;;;;14.02;6.80;;;;;;;9.38;100.00;101225.19;5011522;28;20022;-65
2022/01/01 08:43:38;;;;;;;13.73;5.93;;;;;;;9.43;100.00;101223.38;5012425;28;20026;-65
2022/01/01 08:46:03;;;;;;;21.45;7.75;;;;;;;9.55;100.00;101223.28;5012074;28;20396;-65
2022/01/01 08:48:29;;;;;;;12.65;5.90;;;;;;;9.65;100.00;101230.28;5009394;28;20026;-65
2022/01/01 08:50:54;;;;;;;10.77;5.68;;;;;;;9.75;100.00;101221.28;5011819;28;20096;-65
2022/01/01 08:53:20;;;;;;;12.27;6.60;;;;;;;9.91;100.00;101228.22;5011746;28;20034;-65
2022/01/01 08:55:45;;;;;;;13.73;6.68;;;;;;;10.57;100.00;101232.78;5012296;28;20104;-65
2022/01/01 08:58:11;;;;;;;12.38;6.05;;;;;;;11.96;100.00;101238.53;5011584;28;20030;-66
2022/01/01 09:00:36;;;;;;;10.75;6.45;;;;;;;14.14;100.00;101237.88;5011775;28;20052;-64
2022/01/01 09:03:01;;;;;;;10.73;4.88;;;;;;;16.72;91.24;101227.53;5011440;28;20029;-64
2022/01/01 09:05:27;;;;;;;7.75;4.43;;;;;;;18.99;69.05;101224.81;5011229;28;20085;-64
2022/01/01 09:07:53;;;;;;;9.52;4.88;;;;;;;20.75;57.27;101230.03;5011432;28;20113;-65
2022/01/01 09:10:20;;;;;;;14.30;4.50;;;;;;;22.04;51.65;101228.84;5011594;28;20452;-65
2022/01/01 09:12:46;;;;;;;7.95;3.92;;;;;;;23.06;47.87;101225.03;5011802;28;20363;-65
2022/01/01 09:15:11;;;;;;;5.93;3.75;;;;;;;23.49;44.89;101228.59;5011608;28;20036;-65
2022/01/01 09:17:37;;;;;;;7.10;3.58;;;;;;;23.95;42.92;101232.66;5007109;28;20470;-65
2022/01/01 09:20:03;;;;;;;7.65;4.03;;;;;;;24.28;42.35;101229.47;5010264;28;20038;-65
2022/01/01 09:22:28;;;;;;;7.90;4.35;;;;;;;24.47;40.49;101235.34;5010851;28;20026;-65
2022/01/01 09:24:54;;;;;;;6.38;4.28;;;;;;;24.51;40.08;101231.44;5010656;28;20482;-65
2022/01/01 09:27:20;;;;;;;6.63;4.03;;;;;;;24.67;40.55;101238.44;5007669;28;20041;-65
2022/01/01 09:29:46;;;;;;;7.57;4.07;;;;;;;25.05;39.82;101232.94;5011716;28;20025;-65
2022/01/01 09:32:11;;;;;;;7.80;4.50;;;;;;;25.48;38.90;101234.28;5011166;28;20033;-65
2022/01/01 09:34:37;;;;;;;7.35;4.43;;;;;;;25.96;38.28;101237.84;5011190;28;20029;-65
2022/01/01 09:37:03;;;;;;;7.82;4.35;;;;;;;26.45;36.72;101243.09;5011403;28;20030;-65
2022/01/01 09:39:29;;;;;;;7.80;4.47;;;;;;;26.84;36.63;101242.69;5011293;28;20037;-65
2022/01/01 09:41:56;;;;;;;9.50;4.25;;;;;;;26.98;36.12;101237.00;5008257;28;20022;-65
2022/01/01 09:44:22;;;;;;;8.68;5.15;;;;;;;27.23;35.75;101234.84;5010742;28;20385;-65
2022/01/01 09:46:49;;;;;;;8.80;5.13;;;;;;;26.97;35.91;101235.25;5010295;28;20026;-65
2022/01/01 09:49:18;;;;;;;9.60;5.55;;;;;;;26.68;36.47;101247.66;5011129;28;20132;-65
2022/01/01 09:51:44;;;;;;;8.13;5.22;;;;;;;26.83;36.28;101246.44;5010958;28;20026;-65
2022/01/01 09:54:11;;;;;;;10.00;5.55;;;;;;;26.66;36.76;101230.50;5010263;28;20437;-67
2022/01/01 09:56:36;;;;;;;8.25;4.60;;;;;;;26.51;36.91;101234.44;5010663;28;20061;-67
2022/01/01 09:59:03;;;;;;;6.85;3.42;;;;;;;26.48;36.75;101237.41;5010657;28;20072;-67
2022/01/01 10:01:28;;;;;;;7.13;3.35;;;;;;;26.25;37.71;101232.88;5008563;28;20053;-67
2022/01/01 10:03:56;;;;;;;4.57;2.42;;;;;;;25.95;37.34;101233.38;5010613;28;20064;-67
2022/01/01 10:06:23;;;;;;;6.93;2.92;;;;;;;25.88;38.74;101234.84;5010352;28;20495;-67
2022/01/01 10:09:06;;;;;;;5.18;2.50;;;;;;;25.51;38.58;101225.88;5010575;28;20401;-67
2022/01/01 10:11:33;;;;;;;6.68;3.35;;;;;;;24.84;39.37;101229.06;5010234;28;20033;-67
2022/01/01 10:14:00;;;;;;;8.52;3.95;;;;;;;24.58;39.76;101217.28;5010726;28;20394;-67
2022/01/01 10:16:25;;;;;;;6.20;3.15;;;;;;;24.63;38.65;101220.56;5009961;28;20079;-67
2022/01/01 10:18:53;;;;;;;7.50;3.38;;;;;;;25.07;38.71;101220.09;4993257;28;20038;-67
2022/01/01 10:21:26;;;;;;;7.45;3.45;;;;;;;25.07;38.82;101221.94;4988669;28;20050;-67
2022/01/01 10:23:55;;;;;;;7.20;3.60;;;;;;;24.67;39.84;101221.22;4973068;28;20026;-67
2022/01/01 10:29:26;;;;;;;7.15;4.10;;;;;;;25.26;38.95;101220.47;4990494;28;20525;-67
2022/01/01 10:32:08;;;;;;;7.35;4.00;;;;;;;25.59;38.33;101215.25;4974847;28;20045;-67
2022/01/01 10:34:35;;;;;;;7.95;4.68;;;;;;;25.54;39.08;101214.72;5007282;28;20125;-67
2022/01/01 10:37:03;;;;;;;7.13;3.17;;;;;;;25.35;38.15;101203.50;5008646;28;20434;-67
2022/01/01 10:39:29;;;;;;;6.05;3.00;;;;;;;25.06;38.58;101202.00;5009320;28;20040;-67
2022/01/01 10:41:58;;;;;;;7.57;3.42;;;;;;;24.59;39.46;101208.16;5008898;28;20022;-67
2022/01/01 10:44:29;;;;;;;6.43;3.08;;;;;;;24.98;39.69;101188.09;4991091;28;20088;-67
2022/01/01 10:46:59;;;;;;;6.60;3.38;;;;;;;25.43;39.54;101194.72;5009920;28;20087;-67
2022/01/01 10:49:36;;;;;;;7.15;3.67;;;;;;;25.30;38.29;101188.44;5011012;28;20030;-68
2022/01/01 10:52:16;;;;;;;8.82;4.25;;;;;;;25.35;39.25;101191.72;5008981;28;20109;-68
2022/01/01 10:54:54;;;;;;;7.95;3.83;;;;;;;24.90;39.75;101182.34;5009109;28;20085;-68
2022/01/01 10:57:23;;;;;;;6.28;2.80;;;;;;;24.41;40.51;101182.28;5009209;28;20034;-68
2022/01/01 10:59:50;;;;;;;6.05;2.83;;;;;;;23.82;41.51;101179.25;4992116;28;20485;-68
2022/01/01 11:02:15;;;;;;;5.55;2.85;;;;;;;23.69;41.90;101175.63;5009928;28;20045;-68
2022/01/01 11:04:41;;;;;;;6.18;2.95;;;;;;;23.79;41.88;101171.31;5009476;28;20084;-68
2022/01/01 11:07:08;;;;;;;4.05;2.30;;;;;;;23.37;42.96;101167.81;5009522;28;20034;-68
2022/01/01 11:09:34;;;;;;;6.25;2.70;;;;;;;22.95;43.13;101161.56;5009733;28;20033;-68
2022/01/01 11:12:03;;;;;;;5.72;2.78;;;;;;;22.87;45.95;101155.78;5009065;28;20029;-68
2022/01/01 11:14:31;;;;;;;5.60;2.63;;;;;;;22.74;44.45;101153.00;5009693;28;20565;-68
2022/01/01 11:16:58;;;;;;;5.20;2.03;;;;;;;22.61;46.14;101149.34;5009154;28;20033;-68
2022/01/01 11:19:24;;;;;;;5.53;2.38;;;;;;;22.62;46.36;101145.66;4989942;28;20502;-68